sensor_id;sensor_type;location;lat;lon;timestamp;P1;durP1;ratioP1;P2;durP2;ratioP2
23826;SDS011;12094;50.822;4.376;2022-11-30T00:01:24;52.38;;;21.15;;
23826;SDS011;12094;50.822;4.376;2022-11-30T00:03:54;54.53;;;22.08;;
23826;SDS011;12094;50.822;4.376;2022-11-30T00:06:23;46.33;;;21.17;;
23826;SDS011;12094;50.822;4.376;2022-11-30T00:08:59;52.78;;;22.85;;
23826;SDS011;12094;50.822;4.376;2022-11-30T00:11:26;46.63;;;20.48;;
23826;SDS011;12094;50.822;4.376;2022-11-30T00:13:58;48.67;;;21.83;;
23826;SDS011;12094;50.822;4.376;2022-11-30T00:16:25;45.45;;;21.90;;
23826;SDS011;12094;50.822;4.376;2022-11-30T00:18:55;49.15;;;21.52;;
23826;SDS011;12094;50.822;4.376;2022-11-30T00:21:25;38.60;;;19.90;;
23826;SDS011;12094;50.822;4.376;2022-11-30T00:23:52;39.55;;;18.23;;
23826;SDS011;12094;50.822;4.376;2022-11-30T00:26:19;40.58;;;19.05;;
23826;SDS011;12094;50.822;4.376;2022-11-30T00:28:50;38.50;;;19.27;;
23826;SDS011;12094;50.822;4.376;2022-11-30T00:31:17;38.55;;;18.20;;
23826;SDS011;12094;50.822;4.376;2022-11-30T00:33:47;32.30;;;16.38;;
23826;SDS011;12094;50.822;4.376;2022-11-30T00:36:19;36.00;;;17.83;;
23826;SDS011;12094;50.822;4.376;2022-11-30T00:39:06;35.17;;;17.77;;
23826;SDS011;12094;50.822;4.376;2022-11-30T00:41:33;32.33;;;15.45;;
23826;SDS011;12094;50.822;4.376;2022-11-30T00:44:00;34.10;;;16.45;;
23826;SDS011;12094;50.822;4.376;2022-11-30T00:46:26;33.38;;;16.17;;
23826;SDS011;12094;50.822;4.376;2022-11-30T00:48:53;33.80;;;16.27;;
23826;SDS011;12094;50.822;4.376;2022-11-30T00:51:20;33.03;;;16.25;;
23826;SDS011;12094;50.822;4.376;2022-11-30T00:53:47;32.35;;;14.63;;
23826;SDS011;12094;50.822;4.376;2022-11-30T00:56:14;30.25;;;15.35;;
23826;SDS011;12094;50.822;4.376;2022-11-30T00:58:41;32.05;;;15.05;;
23826;SDS011;12094;50.822;4.376;2022-11-30T01:01:08;37.47;;;16.70;;
23826;SDS011;12094;50.822;4.376;2022-11-30T01:03:36;31.38;;;16.63;;
23826;SDS011;12094;50.822;4.376;2022-11-30T01:06:04;36.17;;;16.67;;
23826;SDS011;12094;50.822;4.376;2022-11-30T01:08:33;35.45;;;16.70;;
23826;SDS011;12094;50.822;4.376;2022-11-30T01:11:22;34.20;;;16.45;;
23826;SDS011;12094;50.822;4.376;2022-11-30T01:13:50;36.63;;;17.08;;
23826;SDS011;12094;50.822;4.376;2022-11-30T01:16:18;34.85;;;16.17;;
23826;SDS011;12094;50.822;4.376;2022-11-30T01:18:53;36.85;;;16.33;;
23826;SDS011;12094;50.822;4.376;2022-11-30T01:21:23;39.38;;;16.40;;
23826;SDS011;12094;50.822;4.376;2022-11-30T01:23:53;35.45;;;16.23;;
23826;SDS011;12094;50.822;4.376;2022-11-30T01:26:20;37.47;;;16.42;;
23826;SDS011;12094;50.822;4.376;2022-11-30T01:28:49;50.00;;;18.25;;
23826;SDS011;12094;50.822;4.376;2022-11-30T01:31:17;41.83;;;17.88;;
23826;SDS011;12094;50.822;4.376;2022-11-30T01:33:52;42.28;;;18.55;;
23826;SDS011;12094;50.822;4.376;2022-11-30T01:36:22;46.63;;;20.60;;
23826;SDS011;12094;50.822;4.376;2022-11-30T01:38:52;44.78;;;18.58;;
23826;SDS011;12094;50.822;4.376;2022-11-30T01:41:28;44.78;;;17.85;;
23826;SDS011;12094;50.822;4.376;2022-11-30T01:43:57;49.05;;;19.33;;
23826;SDS011;12094;50.822;4.376;2022-11-30T01:49:19;45.58;;;18.70;;
23826;SDS011;12094;50.822;4.376;2022-11-30T01:51:59;42.78;;;18.80;;
23826;SDS011;12094;50.822;4.376;2022-11-30T01:54:33;45.30;;;17.83;;
23826;SDS011;12094;50.822;4.376;2022-11-30T01:57:06;40.33;;;18.13;;
23826;SDS011;12094;50.822;4.376;2022-11-30T01:59:39;41.90;;;17.80;;
23826;SDS011;12094;50.822;4.376;2022-11-30T02:02:06;41.70;;;16.90;;
23826;SDS011;12094;50.822;4.376;2022-11-30T02:04:35;40.92;;;16.92;;
23826;SDS011;12094;50.822;4.376;2022-11-30T02:07:04;40.30;;;17.42;;
23826;SDS011;12094;50.822;4.376;2022-11-30T02:09:34;47.38;;;18.45;;
23826;SDS011;12094;50.822;4.376;2022-11-30T02:12:07;44.88;;;17.65;;
23826;SDS011;12094;50.822;4.376;2022-11-30T02:14:47;45.65;;;18.25;;
23826;SDS011;12094;50.822;4.376;2022-11-30T02:34:55;44.42;;;18.85;;
23826;SDS011;12094;50.822;4.376;2022-11-30T02:37:24;48.58;;;19.23;;
23826;SDS011;12094;50.822;4.376;2022-11-30T02:39:53;47.83;;;19.58;;
23826;SDS011;12094;50.822;4.376;2022-11-30T02:42:20;51.72;;;19.38;;
23826;SDS011;12094;50.822;4.376;2022-11-30T02:44:48;46.58;;;19.40;;
23826;SDS011;12094;50.822;4.376;2022-11-30T02:47:30;49.50;;;19.08;;
23826;SDS011;12094;50.822;4.376;2022-11-30T02:50:23;51.60;;;20.00;;
23826;SDS011;12094;50.822;4.376;2022-11-30T02:52:54;50.13;;;19.80;;
23826;SDS011;12094;50.822;4.376;2022-11-30T02:55:22;58.85;;;20.70;;
23826;SDS011;12094;50.822;4.376;2022-11-30T02:57:49;57.05;;;21.10;;
23826;SDS011;12094;50.822;4.376;2022-11-30T03:00:16;52.42;;;19.67;;
23826;SDS011;12094;50.822;4.376;2022-11-30T03:02:46;57.08;;;20.85;;
23826;SDS011;12094;50.822;4.376;2022-11-30T03:05:13;54.72;;;21.20;;
23826;SDS011;12094;50.822;4.376;2022-11-30T03:07:40;59.88;;;20.73;;
23826;SDS011;12094;50.822;4.376;2022-11-30T03:10:07;56.22;;;20.20;;
23826;SDS011;12094;50.822;4.376;2022-11-30T03:12:34;63.50;;;21.45;;
23826;SDS011;12094;50.822;4.376;2022-11-30T03:15:01;55.65;;;19.27;;
23826;SDS011;12094;50.822;4.376;2022-11-30T03:17:29;58.47;;;19.38;;
23826;SDS011;12094;50.822;4.376;2022-11-30T03:19:56;71.38;;;21.10;;
23826;SDS011;12094;50.822;4.376;2022-11-30T03:22:23;68.15;;;21.30;;
23826;SDS011;12094;50.822;4.376;2022-11-30T03:24:50;70.22;;;20.70;;
23826;SDS011;12094;50.822;4.376;2022-11-30T03:27:16;63.60;;;20.92;;
23826;SDS011;12094;50.822;4.376;2022-11-30T03:29:44;72.47;;;21.75;;
23826;SDS011;12094;50.822;4.376;2022-11-30T03:32:11;79.90;;;22.45;;
23826;SDS011;12094;50.822;4.376;2022-11-30T03:34:38;70.35;;;21.88;;
23826;SDS011;12094;50.822;4.376;2022-11-30T03:37:06;87.47;;;22.45;;
23826;SDS011;12094;50.822;4.376;2022-11-30T03:39:33;73.00;;;22.40;;
23826;SDS011;12094;50.822;4.376;2022-11-30T03:42:00;76.90;;;23.75;;
23826;SDS011;12094;50.822;4.376;2022-11-30T03:44:27;79.47;;;23.45;;
23826;SDS011;12094;50.822;4.376;2022-11-30T03:46:55;83.55;;;24.23;;
23826;SDS011;12094;50.822;4.376;2022-11-30T03:49:22;92.65;;;24.85;;
23826;SDS011;12094;50.822;4.376;2022-11-30T03:51:50;90.78;;;24.83;;
23826;SDS011;12094;50.822;4.376;2022-11-30T03:54:16;96.60;;;26.90;;
23826;SDS011;12094;50.822;4.376;2022-11-30T03:56:43;88.07;;;25.60;;
23826;SDS011;12094;50.822;4.376;2022-11-30T03:59:11;96.30;;;26.38;;
23826;SDS011;12094;50.822;4.376;2022-11-30T04:01:39;85.85;;;26.23;;
23826;SDS011;12094;50.822;4.376;2022-11-30T04:04:06;75.25;;;24.17;;
23826;SDS011;12094;50.822;4.376;2022-11-30T04:06:33;84.63;;;25.15;;
23826;SDS011;12094;50.822;4.376;2022-11-30T04:09:00;77.65;;;23.83;;
23826;SDS011;12094;50.822;4.376;2022-11-30T04:11:29;74.93;;;24.48;;
23826;SDS011;12094;50.822;4.376;2022-11-30T04:13:55;77.82;;;24.05;;
23826;SDS011;12094;50.822;4.376;2022-11-30T04:16:22;76.45;;;23.52;;
23826;SDS011;12094;50.822;4.376;2022-11-30T04:18:49;64.45;;;21.73;;
23826;SDS011;12094;50.822;4.376;2022-11-30T04:21:16;75.25;;;23.50;;
23826;SDS011;12094;50.822;4.376;2022-11-30T04:23:44;68.40;;;23.48;;
23826;SDS011;12094;50.822;4.376;2022-11-30T04:26:11;86.70;;;23.65;;
23826;SDS011;12094;50.822;4.376;2022-11-30T04:28:40;73.75;;;23.48;;
23826;SDS011;12094;50.822;4.376;2022-11-30T04:31:07;66.47;;;21.90;;
23826;SDS011;12094;50.822;4.376;2022-11-30T04:33:35;77.47;;;23.58;;
23826;SDS011;12094;50.822;4.376;2022-11-30T04:36:03;73.63;;;25.02;;
23826;SDS011;12094;50.822;4.376;2022-11-30T04:38:33;73.57;;;24.02;;
23826;SDS011;12094;50.822;4.376;2022-11-30T04:41:05;81.63;;;27.55;;
23826;SDS011;12094;50.822;4.376;2022-11-30T04:43:33;79.53;;;26.57;;
23826;SDS011;12094;50.822;4.376;2022-11-30T04:46:00;77.47;;;27.67;;
23826;SDS011;12094;50.822;4.376;2022-11-30T04:48:29;80.95;;;26.83;;
23826;SDS011;12094;50.822;4.376;2022-11-30T04:50:59;106.55;;;27.40;;
23826;SDS011;12094;50.822;4.376;2022-11-30T04:53:34;105.50;;;28.95;;
23826;SDS011;12094;50.822;4.376;2022-11-30T04:56:03;94.75;;;27.58;;
23826;SDS011;12094;50.822;4.376;2022-11-30T04:58:34;101.88;;;28.75;;
23826;SDS011;12094;50.822;4.376;2022-11-30T05:01:01;90.82;;;27.90;;
23826;SDS011;12094;50.822;4.376;2022-11-30T05:03:28;87.13;;;28.23;;
23826;SDS011;12094;50.822;4.376;2022-11-30T05:05:55;87.07;;;25.80;;
23826;SDS011;12094;50.822;4.376;2022-11-30T05:08:22;94.95;;;26.98;;
23826;SDS011;12094;50.822;4.376;2022-11-30T05:10:53;91.95;;;26.40;;
23826;SDS011;12094;50.822;4.376;2022-11-30T05:13:21;87.72;;;26.25;;
23826;SDS011;12094;50.822;4.376;2022-11-30T05:15:49;82.70;;;24.05;;
23826;SDS011;12094;50.822;4.376;2022-11-30T05:18:19;76.03;;;25.25;;
23826;SDS011;12094;50.822;4.376;2022-11-30T05:20:47;73.13;;;25.15;;
23826;SDS011;12094;50.822;4.376;2022-11-30T05:23:15;72.07;;;25.08;;
23826;SDS011;12094;50.822;4.376;2022-11-30T05:25:44;76.88;;;26.98;;
23826;SDS011;12094;50.822;4.376;2022-11-30T05:28:11;71.20;;;25.80;;
23826;SDS011;12094;50.822;4.376;2022-11-30T05:30:39;77.90;;;26.60;;
23826;SDS011;12094;50.822;4.376;2022-11-30T05:33:06;69.85;;;26.27;;
23826;SDS011;12094;50.822;4.376;2022-11-30T05:35:34;77.75;;;26.90;;
23826;SDS011;12094;50.822;4.376;2022-11-30T05:38:02;78.53;;;27.00;;
23826;SDS011;12094;50.822;4.376;2022-11-30T05:40:30;78.65;;;26.10;;
23826;SDS011;12094;50.822;4.376;2022-11-30T05:43:00;67.28;;;25.60;;
23826;SDS011;12094;50.822;4.376;2022-11-30T05:45:28;88.70;;;27.83;;
23826;SDS011;12094;50.822;4.376;2022-11-30T05:47:55;74.40;;;25.85;;
23826;SDS011;12094;50.822;4.376;2022-11-30T05:50:22;82.05;;;26.88;;
23826;SDS011;12094;50.822;4.376;2022-11-30T05:52:51;84.95;;;25.30;;
23826;SDS011;12094;50.822;4.376;2022-11-30T05:55:22;76.65;;;26.50;;
23826;SDS011;12094;50.822;4.376;2022-11-30T05:57:50;77.88;;;27.38;;
23826;SDS011;12094;50.822;4.376;2022-11-30T06:00:17;69.55;;;26.52;;
23826;SDS011;12094;50.822;4.376;2022-11-30T06:02:45;74.63;;;27.02;;
23826;SDS011;12094;50.822;4.376;2022-11-30T06:05:12;81.82;;;27.33;;
23826;SDS011;12094;50.822;4.376;2022-11-30T06:07:40;78.85;;;27.05;;
23826;SDS011;12094;50.822;4.376;2022-11-30T06:10:07;79.72;;;27.88;;
23826;SDS011;12094;50.822;4.376;2022-11-30T06:12:34;82.10;;;28.63;;
23826;SDS011;12094;50.822;4.376;2022-11-30T06:15:02;81.60;;;28.20;;
23826;SDS011;12094;50.822;4.376;2022-11-30T06:17:30;82.97;;;27.95;;
23826;SDS011;12094;50.822;4.376;2022-11-30T06:19:57;84.32;;;29.30;;
23826;SDS011;12094;50.822;4.376;2022-11-30T06:22:24;90.65;;;29.15;;
23826;SDS011;12094;50.822;4.376;2022-11-30T06:24:51;80.40;;;28.60;;
23826;SDS011;12094;50.822;4.376;2022-11-30T06:27:19;80.10;;;28.67;;
23826;SDS011;12094;50.822;4.376;2022-11-30T06:29:47;81.15;;;27.48;;
23826;SDS011;12094;50.822;4.376;2022-11-30T06:32:15;80.63;;;28.27;;
23826;SDS011;12094;50.822;4.376;2022-11-30T06:34:42;85.28;;;30.23;;
23826;SDS011;12094;50.822;4.376;2022-11-30T06:37:09;87.88;;;28.88;;
23826;SDS011;12094;50.822;4.376;2022-11-30T06:39:36;80.22;;;28.23;;
23826;SDS011;12094;50.822;4.376;2022-11-30T06:42:23;81.38;;;27.67;;
23826;SDS011;12094;50.822;4.376;2022-11-30T06:44:50;82.45;;;28.48;;
23826;SDS011;12094;50.822;4.376;2022-11-30T06:47:17;82.25;;;28.38;;
23826;SDS011;12094;50.822;4.376;2022-11-30T06:49:44;81.72;;;28.45;;
23826;SDS011;12094;50.822;4.376;2022-11-30T06:52:11;88.30;;;29.30;;
23826;SDS011;12094;50.822;4.376;2022-11-30T06:54:38;86.57;;;29.48;;
23826;SDS011;12094;50.822;4.376;2022-11-30T06:57:05;88.00;;;28.05;;
23826;SDS011;12094;50.822;4.376;2022-11-30T06:59:33;74.05;;;27.17;;
23826;SDS011;12094;50.822;4.376;2022-11-30T07:02:03;78.07;;;28.27;;
23826;SDS011;12094;50.822;4.376;2022-11-30T07:04:40;69.15;;;27.65;;
23826;SDS011;12094;50.822;4.376;2022-11-30T07:07:08;76.60;;;28.88;;
23826;SDS011;12094;50.822;4.376;2022-11-30T07:09:35;75.05;;;28.25;;
23826;SDS011;12094;50.822;4.376;2022-11-30T07:12:05;78.50;;;28.52;;
23826;SDS011;12094;50.822;4.376;2022-11-30T07:17:03;78.18;;;27.90;;
23826;SDS011;12094;50.822;4.376;2022-11-30T07:19:30;81.28;;;28.83;;
23826;SDS011;12094;50.822;4.376;2022-11-30T07:21:59;70.32;;;26.80;;
23826;SDS011;12094;50.822;4.376;2022-11-30T07:24:27;69.90;;;27.33;;
23826;SDS011;12094;50.822;4.376;2022-11-30T07:27:13;64.68;;;25.83;;
23826;SDS011;12094;50.822;4.376;2022-11-30T07:29:40;66.85;;;27.10;;
23826;SDS011;12094;50.822;4.376;2022-11-30T07:32:07;74.50;;;30.85;;
23826;SDS011;12094;50.822;4.376;2022-11-30T07:34:34;69.32;;;28.10;;
23826;SDS011;12094;50.822;4.376;2022-11-30T07:37:01;81.15;;;29.20;;
23826;SDS011;12094;50.822;4.376;2022-11-30T07:39:28;69.80;;;28.92;;
23826;SDS011;12094;50.822;4.376;2022-11-30T07:41:54;84.07;;;30.30;;
23826;SDS011;12094;50.822;4.376;2022-11-30T07:44:24;75.82;;;29.98;;
23826;SDS011;12094;50.822;4.376;2022-11-30T07:46:51;73.93;;;28.15;;
23826;SDS011;12094;50.822;4.376;2022-11-30T07:49:18;80.80;;;29.98;;
23826;SDS011;12094;50.822;4.376;2022-11-30T07:51:46;89.10;;;30.17;;
23826;SDS011;12094;50.822;4.376;2022-11-30T07:54:14;84.13;;;29.58;;
23826;SDS011;12094;50.822;4.376;2022-11-30T07:56:43;85.22;;;30.65;;
23826;SDS011;12094;50.822;4.376;2022-11-30T07:59:10;78.85;;;29.65;;
23826;SDS011;12094;50.822;4.376;2022-11-30T08:01:37;72.68;;;28.63;;
23826;SDS011;12094;50.822;4.376;2022-11-30T08:04:04;76.20;;;28.23;;
23826;SDS011;12094;50.822;4.376;2022-11-30T08:06:31;77.07;;;28.15;;
23826;SDS011;12094;50.822;4.376;2022-11-30T08:08:59;74.90;;;28.73;;
23826;SDS011;12094;50.822;4.376;2022-11-30T08:11:29;78.72;;;28.77;;
23826;SDS011;12094;50.822;4.376;2022-11-30T08:13:58;75.43;;;27.88;;
23826;SDS011;12094;50.822;4.376;2022-11-30T08:16:26;67.28;;;28.02;;
23826;SDS011;12094;50.822;4.376;2022-11-30T08:18:55;73.40;;;28.38;;
23826;SDS011;12094;50.822;4.376;2022-11-30T08:21:23;69.20;;;28.25;;
23826;SDS011;12094;50.822;4.376;2022-11-30T08:23:51;79.45;;;29.10;;
23826;SDS011;12094;50.822;4.376;2022-11-30T08:26:22;79.35;;;31.35;;
23826;SDS011;12094;50.822;4.376;2022-11-30T08:28:57;83.47;;;29.42;;
23826;SDS011;12094;50.822;4.376;2022-11-30T08:31:30;83.68;;;30.10;;
23826;SDS011;12094;50.822;4.376;2022-11-30T08:34:02;78.97;;;30.45;;
23826;SDS011;12094;50.822;4.376;2022-11-30T08:36:31;83.72;;;31.33;;
23826;SDS011;12094;50.822;4.376;2022-11-30T08:39:00;81.60;;;30.52;;
23826;SDS011;12094;50.822;4.376;2022-11-30T08:41:30;85.90;;;30.70;;
23826;SDS011;12094;50.822;4.376;2022-11-30T08:43:58;84.03;;;30.40;;
23826;SDS011;12094;50.822;4.376;2022-11-30T08:46:25;97.20;;;31.00;;
23826;SDS011;12094;50.822;4.376;2022-11-30T08:49:12;77.53;;;29.80;;
23826;SDS011;12094;50.822;4.376;2022-11-30T08:51:49;74.13;;;28.60;;
23826;SDS011;12094;50.822;4.376;2022-11-30T08:54:38;71.72;;;28.85;;
23826;SDS011;12094;50.822;4.376;2022-11-30T08:57:07;74.07;;;27.20;;
23826;SDS011;12094;50.822;4.376;2022-11-30T08:59:34;64.28;;;25.45;;
23826;SDS011;12094;50.822;4.376;2022-11-30T09:02:02;75.72;;;25.60;;
23826;SDS011;12094;50.822;4.376;2022-11-30T09:04:30;62.53;;;26.00;;
23826;SDS011;12094;50.822;4.376;2022-11-30T09:06:57;61.92;;;26.00;;
23826;SDS011;12094;50.822;4.376;2022-11-30T09:09:26;64.53;;;26.23;;
23826;SDS011;12094;50.822;4.376;2022-11-30T09:11:53;64.80;;;25.40;;
23826;SDS011;12094;50.822;4.376;2022-11-30T09:14:22;62.88;;;26.88;;
23826;SDS011;12094;50.822;4.376;2022-11-30T09:16:49;61.35;;;26.88;;
23826;SDS011;12094;50.822;4.376;2022-11-30T09:19:16;68.07;;;27.20;;
23826;SDS011;12094;50.822;4.376;2022-11-30T09:21:43;68.97;;;28.60;;
23826;SDS011;12094;50.822;4.376;2022-11-30T09:24:17;69.53;;;27.02;;
23826;SDS011;12094;50.822;4.376;2022-11-30T09:26:44;65.35;;;27.65;;
23826;SDS011;12094;50.822;4.376;2022-11-30T09:29:11;66.63;;;27.88;;
23826;SDS011;12094;50.822;4.376;2022-11-30T09:31:38;60.97;;;27.30;;
23826;SDS011;12094;50.822;4.376;2022-11-30T09:34:05;63.83;;;27.45;;
23826;SDS011;12094;50.822;4.376;2022-11-30T09:36:32;64.45;;;27.50;;
23826;SDS011;12094;50.822;4.376;2022-11-30T09:39:00;66.68;;;28.55;;
23826;SDS011;12094;50.822;4.376;2022-11-30T09:46:37;61.30;;;26.83;;
23826;SDS011;12094;50.822;4.376;2022-11-30T09:51:57;82.32;;;31.27;;
23826;SDS011;12094;50.822;4.376;2022-11-30T09:54:30;78.50;;;33.78;;
23826;SDS011;12094;50.822;4.376;2022-11-30T09:57:28;77.65;;;31.33;;
23826;SDS011;12094;50.822;4.376;2022-11-30T09:59:59;76.05;;;32.00;;
23826;SDS011;12094;50.822;4.376;2022-11-30T10:02:37;96.55;;;37.00;;
23826;SDS011;12094;50.822;4.376;2022-11-30T10:05:11;71.63;;;30.50;;
23826;SDS011;12094;50.822;4.376;2022-11-30T10:21:12;71.95;;;29.70;;
23826;SDS011;12094;50.822;4.376;2022-11-30T10:23:53;68.80;;;28.35;;
23826;SDS011;12094;50.822;4.376;2022-11-30T10:26:34;61.30;;;28.17;;
23826;SDS011;12094;50.822;4.376;2022-11-30T10:31:57;63.05;;;28.08;;
23826;SDS011;12094;50.822;4.376;2022-11-30T10:42:57;56.60;;;25.67;;
23826;SDS011;12094;50.822;4.376;2022-11-30T10:45:48;58.53;;;27.73;;
23826;SDS011;12094;50.822;4.376;2022-11-30T10:48:18;59.15;;;28.55;;
23826;SDS011;12094;50.822;4.376;2022-11-30T10:50:49;60.20;;;26.88;;
23826;SDS011;12094;50.822;4.376;2022-11-30T10:53:17;58.65;;;27.95;;
23826;SDS011;12094;50.822;4.376;2022-11-30T10:55:51;53.33;;;27.35;;
23826;SDS011;12094;50.822;4.376;2022-11-30T10:58:27;47.33;;;25.25;;
23826;SDS011;12094;50.822;4.376;2022-11-30T11:01:34;58.47;;;26.38;;
23826;SDS011;12094;50.822;4.376;2022-11-30T11:09:39;60.00;;;28.30;;
23826;SDS011;12094;50.822;4.376;2022-11-30T11:12:25;57.10;;;28.83;;
23826;SDS011;12094;50.822;4.376;2022-11-30T11:20:58;69.20;;;27.48;;
23826;SDS011;12094;50.822;4.376;2022-11-30T11:23:38;51.78;;;26.45;;
23826;SDS011;12094;50.822;4.376;2022-11-30T11:26:14;61.28;;;27.20;;
23826;SDS011;12094;50.822;4.376;2022-11-30T11:29:01;58.83;;;26.63;;
23826;SDS011;12094;50.822;4.376;2022-11-30T11:31:44;53.00;;;27.95;;
23826;SDS011;12094;50.822;4.376;2022-11-30T11:34:24;58.13;;;27.08;;
23826;SDS011;12094;50.822;4.376;2022-11-30T11:37:13;54.92;;;27.00;;
23826;SDS011;12094;50.822;4.376;2022-11-30T11:42:35;55.30;;;26.55;;
23826;SDS011;12094;50.822;4.376;2022-11-30T11:45:19;50.70;;;24.70;;
23826;SDS011;12094;50.822;4.376;2022-11-30T11:48:02;54.13;;;26.33;;
23826;SDS011;12094;50.822;4.376;2022-11-30T11:50:33;51.55;;;27.27;;
23826;SDS011;12094;50.822;4.376;2022-11-30T11:53:33;52.40;;;25.45;;
23826;SDS011;12094;50.822;4.376;2022-11-30T11:56:19;52.55;;;26.92;;
23826;SDS011;12094;50.822;4.376;2022-11-30T12:02:13;57.58;;;26.60;;
23826;SDS011;12094;50.822;4.376;2022-11-30T12:07:23;56.47;;;27.77;;
23826;SDS011;12094;50.822;4.376;2022-11-30T12:13:19;58.53;;;25.77;;
23826;SDS011;12094;50.822;4.376;2022-11-30T12:29:56;55.45;;;28.98;;
23826;SDS011;12094;50.822;4.376;2022-11-30T12:38:57;56.50;;;28.90;;
23826;SDS011;12094;50.822;4.376;2022-11-30T12:42:33;64.45;;;29.00;;
23826;SDS011;12094;50.822;4.376;2022-11-30T12:47:21;62.22;;;30.90;;
23826;SDS011;12094;50.822;4.376;2022-11-30T12:50:15;62.05;;;30.60;;
23826;SDS011;12094;50.822;4.376;2022-11-30T12:53:02;61.33;;;30.90;;
23826;SDS011;12094;50.822;4.376;2022-11-30T12:58:18;62.95;;;29.98;;
23826;SDS011;12094;50.822;4.376;2022-11-30T13:03:42;60.72;;;29.42;;
23826;SDS011;12094;50.822;4.376;2022-11-30T13:06:31;61.35;;;31.35;;
23826;SDS011;12094;50.822;4.376;2022-11-30T13:09:39;65.78;;;30.52;;
23826;SDS011;12094;50.822;4.376;2022-11-30T13:12:23;62.08;;;30.88;;
23826;SDS011;12094;50.822;4.376;2022-11-30T13:17:44;59.10;;;28.70;;
23826;SDS011;12094;50.822;4.376;2022-11-30T13:20:18;59.63;;;28.98;;
23826;SDS011;12094;50.822;4.376;2022-11-30T13:25:49;56.40;;;29.42;;
23826;SDS011;12094;50.822;4.376;2022-11-30T13:31:21;60.70;;;29.05;;
23826;SDS011;12094;50.822;4.376;2022-11-30T13:34:25;53.80;;;28.75;;
23826;SDS011;12094;50.822;4.376;2022-11-30T13:37:03;55.33;;;26.92;;
23826;SDS011;12094;50.822;4.376;2022-11-30T13:39:54;55.53;;;28.05;;
23826;SDS011;12094;50.822;4.376;2022-11-30T13:45:26;56.50;;;28.25;;
23826;SDS011;12094;50.822;4.376;2022-11-30T13:47:58;58.27;;;27.13;;
23826;SDS011;12094;50.822;4.376;2022-11-30T13:50:41;56.50;;;28.00;;
23826;SDS011;12094;50.822;4.376;2022-11-30T13:53:21;58.30;;;28.60;;
23826;SDS011;12094;50.822;4.376;2022-11-30T13:58:26;56.47;;;28.45;;
23826;SDS011;12094;50.822;4.376;2022-11-30T14:03:29;53.45;;;28.08;;
23826;SDS011;12094;50.822;4.376;2022-11-30T14:05:59;50.80;;;27.63;;
23826;SDS011;12094;50.822;4.376;2022-11-30T14:14:28;51.17;;;27.67;;
23826;SDS011;12094;50.822;4.376;2022-11-30T14:17:18;59.00;;;27.38;;
23826;SDS011;12094;50.822;4.376;2022-11-30T14:19:49;55.38;;;27.58;;
23826;SDS011;12094;50.822;4.376;2022-11-30T14:22:18;61.28;;;28.83;;
23826;SDS011;12094;50.822;4.376;2022-11-30T14:24:46;56.38;;;28.27;;
23826;SDS011;12094;50.822;4.376;2022-11-30T14:27:21;58.20;;;29.05;;
23826;SDS011;12094;50.822;4.376;2022-11-30T14:29:51;64.53;;;30.98;;
23826;SDS011;12094;50.822;4.376;2022-11-30T14:32:27;60.80;;;29.85;;
23826;SDS011;12094;50.822;4.376;2022-11-30T14:35:14;63.30;;;30.30;;
23826;SDS011;12094;50.822;4.376;2022-11-30T14:37:44;63.25;;;29.65;;
23826;SDS011;12094;50.822;4.376;2022-11-30T14:40:21;55.17;;;29.63;;
23826;SDS011;12094;50.822;4.376;2022-11-30T14:42:54;60.05;;;30.02;;
23826;SDS011;12094;50.822;4.376;2022-11-30T14:45:28;58.10;;;30.27;;
23826;SDS011;12094;50.822;4.376;2022-11-30T14:48:07;63.42;;;30.45;;
23826;SDS011;12094;50.822;4.376;2022-11-30T14:50:44;67.50;;;31.58;;
23826;SDS011;12094;50.822;4.376;2022-11-30T14:53:24;63.50;;;30.60;;
23826;SDS011;12094;50.822;4.376;2022-11-30T14:55:58;57.95;;;30.38;;
23826;SDS011;12094;50.822;4.376;2022-11-30T15:01:20;62.33;;;31.23;;
23826;SDS011;12094;50.822;4.376;2022-11-30T15:03:50;66.38;;;32.63;;
23826;SDS011;12094;50.822;4.376;2022-11-30T15:06:21;69.90;;;34.63;;
23826;SDS011;12094;50.822;4.376;2022-11-30T15:08:54;63.00;;;33.08;;
23826;SDS011;12094;50.822;4.376;2022-11-30T15:11:24;69.53;;;32.78;;
23826;SDS011;12094;50.822;4.376;2022-11-30T15:13:52;70.00;;;33.70;;
23826;SDS011;12094;50.822;4.376;2022-11-30T15:16:28;76.45;;;33.47;;
23826;SDS011;12094;50.822;4.376;2022-11-30T15:18:57;65.45;;;33.22;;
23826;SDS011;12094;50.822;4.376;2022-11-30T15:21:30;70.30;;;34.15;;
23826;SDS011;12094;50.822;4.376;2022-11-30T15:23:58;72.97;;;34.60;;
23826;SDS011;12094;50.822;4.376;2022-11-30T15:26:36;69.63;;;33.70;;
23826;SDS011;12094;50.822;4.376;2022-11-30T15:29:15;72.35;;;34.38;;
23826;SDS011;12094;50.822;4.376;2022-11-30T15:31:49;70.40;;;33.55;;
23826;SDS011;12094;50.822;4.376;2022-11-30T15:37:01;65.13;;;31.92;;
23826;SDS011;12094;50.822;4.376;2022-11-30T15:39:30;66.15;;;32.97;;
23826;SDS011;12094;50.822;4.376;2022-11-30T15:42:02;75.03;;;34.47;;
23826;SDS011;12094;50.822;4.376;2022-11-30T15:47:05;66.95;;;31.60;;
23826;SDS011;12094;50.822;4.376;2022-11-30T15:49:54;77.72;;;35.50;;
23826;SDS011;12094;50.822;4.376;2022-11-30T15:52:25;71.95;;;33.30;;
23826;SDS011;12094;50.822;4.376;2022-11-30T15:54:59;68.13;;;31.67;;
23826;SDS011;12094;50.822;4.376;2022-11-30T16:00:23;70.80;;;33.70;;
23826;SDS011;12094;50.822;4.376;2022-11-30T16:05:37;69.55;;;33.35;;
23826;SDS011;12094;50.822;4.376;2022-11-30T16:08:13;79.38;;;34.88;;
23826;SDS011;12094;50.822;4.376;2022-11-30T16:13:13;72.60;;;34.53;;
23826;SDS011;12094;50.822;4.376;2022-11-30T16:15:46;76.65;;;35.00;;
23826;SDS011;12094;50.822;4.376;2022-11-30T16:18:25;76.63;;;34.38;;
23826;SDS011;12094;50.822;4.376;2022-11-30T16:20:58;70.82;;;33.10;;
23826;SDS011;12094;50.822;4.376;2022-11-30T16:23:27;77.28;;;34.35;;
23826;SDS011;12094;50.822;4.376;2022-11-30T16:25:54;69.60;;;33.72;;
23826;SDS011;12094;50.822;4.376;2022-11-30T16:28:21;80.82;;;35.33;;
23826;SDS011;12094;50.822;4.376;2022-11-30T16:30:50;76.45;;;35.40;;
23826;SDS011;12094;50.822;4.376;2022-11-30T16:33:20;72.88;;;34.15;;
23826;SDS011;12094;50.822;4.376;2022-11-30T16:38:51;96.22;;;38.45;;
23826;SDS011;12094;50.822;4.376;2022-11-30T16:41:24;87.15;;;37.80;;
23826;SDS011;12094;50.822;4.376;2022-11-30T16:43:53;86.65;;;36.38;;
23826;SDS011;12094;50.822;4.376;2022-11-30T16:46:21;92.20;;;37.00;;
23826;SDS011;12094;50.822;4.376;2022-11-30T16:48:51;87.53;;;36.95;;
23826;SDS011;12094;50.822;4.376;2022-11-30T16:53:54;103.68;;;38.97;;
23826;SDS011;12094;50.822;4.376;2022-11-30T16:56:21;103.75;;;40.42;;
23826;SDS011;12094;50.822;4.376;2022-11-30T16:58:50;110.20;;;42.10;;
23826;SDS011;12094;50.822;4.376;2022-11-30T17:01:32;102.22;;;42.15;;
23826;SDS011;12094;50.822;4.376;2022-11-30T17:09:29;95.70;;;41.42;;
23826;SDS011;12094;50.822;4.376;2022-11-30T17:12:00;102.10;;;40.25;;
23826;SDS011;12094;50.822;4.376;2022-11-30T17:14:29;105.50;;;43.53;;
23826;SDS011;12094;50.822;4.376;2022-11-30T17:16:56;103.30;;;41.03;;
23826;SDS011;12094;50.822;4.376;2022-11-30T17:19:25;112.53;;;43.92;;
23826;SDS011;12094;50.822;4.376;2022-11-30T17:21:54;109.93;;;45.10;;
23826;SDS011;12094;50.822;4.376;2022-11-30T17:24:24;116.18;;;46.33;;